sensor_id;sensor_type;location;lat;lon;timestamp;temperature;humidity
10294;DHT22;5192;50.328;7.610;2023-06-10T00:01:56;19.10;1.00
10294;DHT22;5192;50.328;7.610;2023-06-10T00:04:25;19.10;1.00
10294;DHT22;5192;50.328;7.610;2023-06-10T00:06:52;18.90;1.00
10294;DHT22;5192;50.328;7.610;2023-06-10T00:09:20;18.80;1.00
10294;DHT22;5192;50.328;7.610;2023-06-10T00:11:47;18.80;1.00
10294;DHT22;5192;50.328;7.610;2023-06-10T00:14:15;18.80;1.00
10294;DHT22;5192;50.328;7.610;2023-06-10T00:16:42;18.80;1.00
10294;DHT22;5192;50.328;7.610;2023-06-10T00:19:12;18.80;1.00
10294;DHT22;5192;50.328;7.610;2023-06-10T00:21:45;18.70;2.40
10294;DHT22;5192;50.328;7.610;2023-06-10T00:24:13;18.70;1.60
10294;DHT22;5192;50.328;7.610;2023-06-10T00:26:39;18.60;1.00
10294;DHT22;5192;50.328;7.610;2023-06-10T00:29:09;18.60;1.90
10294;DHT22;5192;50.328;7.610;2023-06-10T00:31:37;18.60;2.70
10294;DHT22;5192;50.328;7.610;2023-06-10T00:34:06;18.60;2.60
10294;DHT22;5192;50.328;7.610;2023-06-10T00:36:34;18.60;1.00
10294;DHT22;5192;50.328;7.610;2023-06-10T00:39:04;18.70;1.00
10294;DHT22;5192;50.328;7.610;2023-06-10T00:41:31;18.70;1.00
10294;DHT22;5192;50.328;7.610;2023-06-10T00:44:01;18.70;1.00
10294;DHT22;5192;50.328;7.610;2023-06-10T00:46:28;18.70;1.00
10294;DHT22;5192;50.328;7.610;2023-06-10T00:48:54;18.70;1.00
10294;DHT22;5192;50.328;7.610;2023-06-10T00:51:20;18.70;1.00
10294;DHT22;5192;50.328;7.610;2023-06-10T00:53:47;18.80;1.00
10294;DHT22;5192;50.328;7.610;2023-06-10T00:56:16;18.80;1.00
10294;DHT22;5192;50.328;7.610;2023-06-10T00:58:43;18.70;1.00
10294;DHT22;5192;50.328;7.610;2023-06-10T01:01:09;18.70;1.00
10294;DHT22;5192;50.328;7.610;2023-06-10T01:03:37;18.60;1.00
10294;DHT22;5192;50.328;7.610;2023-06-10T01:11:50;18.30;7.60
10294;DHT22;5192;50.328;7.610;2023-06-10T01:14:18;18.10;11.00
10294;DHT22;5192;50.328;7.610;2023-06-10T01:16:45;18.10;13.90
10294;DHT22;5192;50.328;7.610;2023-06-10T01:19:14;18.00;13.40
10294;DHT22;5192;50.328;7.610;2023-06-10T01:21:45;17.80;12.60
10294;DHT22;5192;50.328;7.610;2023-06-10T01:24:19;17.80;11.40
10294;DHT22;5192;50.328;7.610;2023-06-10T01:26:49;17.70;12.00
10294;DHT22;5192;50.328;7.610;2023-06-10T01:29:46;17.70;14.60
10294;DHT22;5192;50.328;7.610;2023-06-10T01:32:32;17.60;16.90
10294;DHT22;5192;50.328;7.610;2023-06-10T01:35:01;17.60;18.10
10294;DHT22;5192;50.328;7.610;2023-06-10T01:37:28;17.50;16.10
10294;DHT22;5192;50.328;7.610;2023-06-10T01:39:58;17.40;17.50
10294;DHT22;5192;50.328;7.610;2023-06-10T01:42:25;17.40;17.70
10294;DHT22;5192;50.328;7.610;2023-06-10T01:44:52;17.40;15.60
10294;DHT22;5192;50.328;7.610;2023-06-10T01:47:20;17.40;16.70
10294;DHT22;5192;50.328;7.610;2023-06-10T01:49:48;17.40;17.60
10294;DHT22;5192;50.328;7.610;2023-06-10T01:52:17;17.40;16.40
10294;DHT22;5192;50.328;7.610;2023-06-10T01:54:45;17.30;16.80
10294;DHT22;5192;50.328;7.610;2023-06-10T01:57:12;17.30;16.90
10294;DHT22;5192;50.328;7.610;2023-06-10T01:59:38;17.30;16.90
10294;DHT22;5192;50.328;7.610;2023-06-10T02:02:06;17.30;17.40
10294;DHT22;5192;50.328;7.610;2023-06-10T02:04:33;17.20;16.50
10294;DHT22;5192;50.328;7.610;2023-06-10T02:07:00;17.30;15.80
10294;DHT22;5192;50.328;7.610;2023-06-10T02:09:32;17.30;15.10
10294;DHT22;5192;50.328;7.610;2023-06-10T02:12:05;17.30;16.30
10294;DHT22;5192;50.328;7.610;2023-06-10T02:14:33;17.30;16.10
10294;DHT22;5192;50.328;7.610;2023-06-10T02:17:00;17.30;16.80
10294;DHT22;5192;50.328;7.610;2023-06-10T02:19:29;17.30;15.90
10294;DHT22;5192;50.328;7.610;2023-06-10T02:21:59;17.30;17.00
10294;DHT22;5192;50.328;7.610;2023-06-10T02:24:27;17.20;18.90
10294;DHT22;5192;50.328;7.610;2023-06-10T02:26:53;17.20;20.40
10294;DHT22;5192;50.328;7.610;2023-06-10T02:29:20;17.20;21.00
10294;DHT22;5192;50.328;7.610;2023-06-10T02:31:47;17.10;21.80
10294;DHT22;5192;50.328;7.610;2023-06-10T02:34:14;17.00;22.10
10294;DHT22;5192;50.328;7.610;2023-06-10T02:36:40;16.90;23.00
10294;DHT22;5192;50.328;7.610;2023-06-10T02:39:08;16.90;22.80
10294;DHT22;5192;50.328;7.610;2023-06-10T02:41:36;16.90;22.40
10294;DHT22;5192;50.328;7.610;2023-06-10T02:44:05;16.80;21.60
10294;DHT22;5192;50.328;7.610;2023-06-10T02:46:31;16.80;23.10
10294;DHT22;5192;50.328;7.610;2023-06-10T02:48:58;16.80;22.70
10294;DHT22;5192;50.328;7.610;2023-06-10T02:51:25;16.80;21.10
10294;DHT22;5192;50.328;7.610;2023-06-10T02:53:52;16.80;21.20
10294;DHT22;5192;50.328;7.610;2023-06-10T02:56:19;16.80;21.50
10294;DHT22;5192;50.328;7.610;2023-06-10T02:58:47;16.80;21.50
10294;DHT22;5192;50.328;7.610;2023-06-10T03:01:26;16.80;20.50
10294;DHT22;5192;50.328;7.610;2023-06-10T03:03:53;16.80;19.30
10294;DHT22;5192;50.328;7.610;2023-06-10T03:06:20;16.90;17.30
10294;DHT22;5192;50.328;7.610;2023-06-10T03:08:48;16.90;19.00
10294;DHT22;5192;50.328;7.610;2023-06-10T03:11:14;16.90;18.10
10294;DHT22;5192;50.328;7.610;2023-06-10T03:13:42;17.00;17.20
10294;DHT22;5192;50.328;7.610;2023-06-10T03:16:10;17.00;16.10
10294;DHT22;5192;50.328;7.610;2023-06-10T03:18:39;17.00;15.70
10294;DHT22;5192;50.328;7.610;2023-06-10T03:21:06;17.00;16.30
10294;DHT22;5192;50.328;7.610;2023-06-10T03:23:36;17.00;14.30
10294;DHT22;5192;50.328;7.610;2023-06-10T03:26:04;17.10;13.10
10294;DHT22;5192;50.328;7.610;2023-06-10T03:28:31;17.10;12.40
10294;DHT22;5192;50.328;7.610;2023-06-10T03:30:58;17.20;12.10
10294;DHT22;5192;50.328;7.610;2023-06-10T03:33:25;17.20;11.00
10294;DHT22;5192;50.328;7.610;2023-06-10T03:35:54;17.20;10.70
10294;DHT22;5192;50.328;7.610;2023-06-10T03:38:22;17.20;10.90
10294;DHT22;5192;50.328;7.610;2023-06-10T03:40:50;17.20;12.50
10294;DHT22;5192;50.328;7.610;2023-06-10T03:43:17;17.20;12.90
10294;DHT22;5192;50.328;7.610;2023-06-10T03:45:44;17.20;12.60
10294;DHT22;5192;50.328;7.610;2023-06-10T03:48:13;17.10;13.60
10294;DHT22;5192;50.328;7.610;2023-06-10T03:50:41;17.10;20.70
10294;DHT22;5192;50.328;7.610;2023-06-10T03:53:06;17.00;23.70
10294;DHT22;5192;50.328;7.610;2023-06-10T03:55:32;16.90;26.20
10294;DHT22;5192;50.328;7.610;2023-06-10T03:57:59;16.80;27.30
10294;DHT22;5192;50.328;7.610;2023-06-10T04:00:26;16.70;29.00
10294;DHT22;5192;50.328;7.610;2023-06-10T04:02:57;16.70;30.30
10294;DHT22;5192;50.328;7.610;2023-06-10T04:05:25;16.60;31.40
10294;DHT22;5192;50.328;7.610;2023-06-10T04:07:51;16.40;33.00
10294;DHT22;5192;50.328;7.610;2023-06-10T04:10:18;16.40;34.30
10294;DHT22;5192;50.328;7.610;2023-06-10T04:12:44;16.30;35.60
10294;DHT22;5192;50.328;7.610;2023-06-10T04:15:13;16.20;36.50
10294;DHT22;5192;50.328;7.610;2023-06-10T04:17:39;16.10;39.30
10294;DHT22;5192;50.328;7.610;2023-06-10T04:20:07;16.00;40.10
10294;DHT22;5192;50.328;7.610;2023-06-10T04:22:35;16.00;41.80
10294;DHT22;5192;50.328;7.610;2023-06-10T04:25:02;16.00;43.10
10294;DHT22;5192;50.328;7.610;2023-06-10T04:27:30;15.90;43.60
10294;DHT22;5192;50.328;7.610;2023-06-10T04:29:57;15.90;43.20
10294;DHT22;5192;50.328;7.610;2023-06-10T04:32:23;15.80;43.00
10294;DHT22;5192;50.328;7.610;2023-06-10T04:34:50;15.80;41.10
10294;DHT22;5192;50.328;7.610;2023-06-10T04:37:18;15.80;39.20
10294;DHT22;5192;50.328;7.610;2023-06-10T04:39:44;15.80;37.60
10294;DHT22;5192;50.328;7.610;2023-06-10T04:42:11;15.80;36.20
10294;DHT22;5192;50.328;7.610;2023-06-10T04:44:37;15.90;32.70
10294;DHT22;5192;50.328;7.610;2023-06-10T04:47:07;15.90;33.30
10294;DHT22;5192;50.328;7.610;2023-06-10T04:49:35;16.00;33.30
10294;DHT22;5192;50.328;7.610;2023-06-10T04:52:04;16.10;32.40
10294;DHT22;5192;50.328;7.610;2023-06-10T04:54:32;16.10;34.20
10294;DHT22;5192;50.328;7.610;2023-06-10T04:56:59;16.20;35.70
10294;DHT22;5192;50.328;7.610;2023-06-10T04:59:31;16.20;37.20
10294;DHT22;5192;50.328;7.610;2023-06-10T05:01:56;16.20;38.10
10294;DHT22;5192;50.328;7.610;2023-06-10T05:04:23;16.20;38.70
10294;DHT22;5192;50.328;7.610;2023-06-10T05:06:50;16.20;38.90
10294;DHT22;5192;50.328;7.610;2023-06-10T05:09:17;16.20;39.10
10294;DHT22;5192;50.328;7.610;2023-06-10T05:11:45;16.30;38.50
10294;DHT22;5192;50.328;7.610;2023-06-10T05:14:14;16.30;38.90
10294;DHT22;5192;50.328;7.610;2023-06-10T05:16:47;16.40;39.30
10294;DHT22;5192;50.328;7.610;2023-06-10T05:19:15;16.40;39.70
10294;DHT22;5192;50.328;7.610;2023-06-10T05:21:46;16.40;37.20
10294;DHT22;5192;50.328;7.610;2023-06-10T05:24:13;16.50;37.40
10294;DHT22;5192;50.328;7.610;2023-06-10T05:26:41;16.50;34.80
10294;DHT22;5192;50.328;7.610;2023-06-10T05:29:10;16.60;34.00
10294;DHT22;5192;50.328;7.610;2023-06-10T05:31:37;16.70;35.20
10294;DHT22;5192;50.328;7.610;2023-06-10T05:34:05;16.70;33.70
10294;DHT22;5192;50.328;7.610;2023-06-10T05:36:32;16.80;28.00
10294;DHT22;5192;50.328;7.610;2023-06-10T05:39:00;16.90;27.50
10294;DHT22;5192;50.328;7.610;2023-06-10T05:41:27;17.00;27.00
10294;DHT22;5192;50.328;7.610;2023-06-10T05:43:56;17.10;26.90
10294;DHT22;5192;50.328;7.610;2023-06-10T05:46:22;17.20;30.00
10294;DHT22;5192;50.328;7.610;2023-06-10T05:48:50;17.30;26.90
10294;DHT22;5192;50.328;7.610;2023-06-10T05:51:18;17.40;24.50
10294;DHT22;5192;50.328;7.610;2023-06-10T05:53:46;17.40;24.40
10294;DHT22;5192;50.328;7.610;2023-06-10T05:56:14;17.50;23.50
10294;DHT22;5192;50.328;7.610;2023-06-10T05:58:42;17.60;24.30
10294;DHT22;5192;50.328;7.610;2023-06-10T06:01:11;17.70;23.10
10294;DHT22;5192;50.328;7.610;2023-06-10T06:03:38;17.80;20.50
10294;DHT22;5192;50.328;7.610;2023-06-10T06:06:06;17.90;18.30
10294;DHT22;5192;50.328;7.610;2023-06-10T06:08:34;18.00;18.20
10294;DHT22;5192;50.328;7.610;2023-06-10T06:11:02;18.10;17.30
10294;DHT22;5192;50.328;7.610;2023-06-10T06:13:29;18.30;16.60
10294;DHT22;5192;50.328;7.610;2023-06-10T06:15:57;18.30;16.90
10294;DHT22;5192;50.328;7.610;2023-06-10T06:18:23;18.40;12.80
10294;DHT22;5192;50.328;7.610;2023-06-10T06:20:50;18.50;10.60
10294;DHT22;5192;50.328;7.610;2023-06-10T06:23:16;18.70;13.00
10294;DHT22;5192;50.328;7.610;2023-06-10T06:25:43;18.80;8.30
10294;DHT22;5192;50.328;7.610;2023-06-10T06:28:10;18.90;7.50
10294;DHT22;5192;50.328;7.610;2023-06-10T06:30:39;19.00;5.90
10294;DHT22;5192;50.328;7.610;2023-06-10T06:33:06;19.10;7.00
10294;DHT22;5192;50.328;7.610;2023-06-10T06:35:33;19.30;6.60
10294;DHT22;5192;50.328;7.610;2023-06-10T06:37:59;19.30;6.10
10294;DHT22;5192;50.328;7.610;2023-06-10T06:40:27;19.40;6.60
10294;DHT22;5192;50.328;7.610;2023-06-10T06:42:55;19.50;8.60
10294;DHT22;5192;50.328;7.610;2023-06-10T06:45:22;19.60;4.80
10294;DHT22;5192;50.328;7.610;2023-06-10T06:47:50;19.70;4.70
10294;DHT22;5192;50.328;7.610;2023-06-10T06:50:19;19.80;1.00
10294;DHT22;5192;50.328;7.610;2023-06-10T06:52:48;19.90;1.00
10294;DHT22;5192;50.328;7.610;2023-06-10T06:55:16;20.00;1.00
10294;DHT22;5192;50.328;7.610;2023-06-10T06:57:44;20.10;1.00
10294;DHT22;5192;50.328;7.610;2023-06-10T07:00:12;20.20;1.00
10294;DHT22;5192;50.328;7.610;2023-06-10T07:02:40;20.30;1.00
10294;DHT22;5192;50.328;7.610;2023-06-10T07:05:08;20.40;1.00
10294;DHT22;5192;50.328;7.610;2023-06-10T07:07:35;20.50;1.00
10294;DHT22;5192;50.328;7.610;2023-06-10T07:10:02;20.60;1.00
10294;DHT22;5192;50.328;7.610;2023-06-10T07:12:30;20.70;1.00
10294;DHT22;5192;50.328;7.610;2023-06-10T07:15:02;20.80;1.00
10294;DHT22;5192;50.328;7.610;2023-06-10T07:17:28;20.90;1.00
10294;DHT22;5192;50.328;7.610;2023-06-10T07:19:55;21.00;1.00
10294;DHT22;5192;50.328;7.610;2023-06-10T07:22:24;21.10;1.00
10294;DHT22;5192;50.328;7.610;2023-06-10T07:24:51;21.10;1.00
10294;DHT22;5192;50.328;7.610;2023-06-10T07:27:20;21.20;1.00
10294;DHT22;5192;50.328;7.610;2023-06-10T07:29:47;21.30;1.00
10294;DHT22;5192;50.328;7.610;2023-06-10T07:32:14;21.40;1.00
10294;DHT22;5192;50.328;7.610;2023-06-10T07:34:42;21.50;1.00
10294;DHT22;5192;50.328;7.610;2023-06-10T07:37:10;21.50;1.00
10294;DHT22;5192;50.328;7.610;2023-06-10T07:39:38;21.60;1.00
10294;DHT22;5192;50.328;7.610;2023-06-10T07:42:07;21.70;1.00
10294;DHT22;5192;50.328;7.610;2023-06-10T07:44:33;21.70;1.00
10294;DHT22;5192;50.328;7.610;2023-06-10T07:47:02;21.80;1.00
10294;DHT22;5192;50.328;7.610;2023-06-10T07:49:28;21.90;1.00
10294;DHT22;5192;50.328;7.610;2023-06-10T07:51:57;22.00;1.00
10294;DHT22;5192;50.328;7.610;2023-06-10T07:54:25;22.10;1.00
10294;DHT22;5192;50.328;7.610;2023-06-10T07:56:53;22.20;1.00
10294;DHT22;5192;50.328;7.610;2023-06-10T07:59:19;22.30;1.00
10294;DHT22;5192;50.328;7.610;2023-06-10T08:01:46;22.40;1.00
10294;DHT22;5192;50.328;7.610;2023-06-10T08:04:11;22.50;1.00
10294;DHT22;5192;50.328;7.610;2023-06-10T08:06:41;22.60;1.00
10294;DHT22;5192;50.328;7.610;2023-06-10T08:09:09;22.60;1.00
10294;DHT22;5192;50.328;7.610;2023-06-10T08:11:37;22.70;1.00
10294;DHT22;5192;50.328;7.610;2023-06-10T08:14:03;22.70;1.00
10294;DHT22;5192;50.328;7.610;2023-06-10T08:16:31;22.80;1.00
10294;DHT22;5192;50.328;7.610;2023-06-10T08:19:00;22.90;1.00
10294;DHT22;5192;50.328;7.610;2023-06-10T08:21:28;23.00;1.00
10294;DHT22;5192;50.328;7.610;2023-06-10T08:23:55;23.00;1.00
10294;DHT22;5192;50.328;7.610;2023-06-10T08:26:23;23.10;1.00
10294;DHT22;5192;50.328;7.610;2023-06-10T08:28:50;23.30;1.00
10294;DHT22;5192;50.328;7.610;2023-06-10T08:31:18;23.30;1.00
10294;DHT22;5192;50.328;7.610;2023-06-10T08:33:45;23.40;1.00
10294;DHT22;5192;50.328;7.610;2023-06-10T08:36:13;23.50;1.00
10294;DHT22;5192;50.328;7.610;2023-06-10T08:38:40;23.50;1.00
10294;DHT22;5192;50.328;7.610;2023-06-10T08:41:09;23.60;1.00
10294;DHT22;5192;50.328;7.610;2023-06-10T08:43:59;23.70;1.00
10294;DHT22;5192;50.328;7.610;2023-06-10T08:46:33;23.80;1.00
10294;DHT22;5192;50.328;7.610;2023-06-10T08:49:03;23.80;1.00
10294;DHT22;5192;50.328;7.610;2023-06-10T08:51:35;23.80;1.00
10294;DHT22;5192;50.328;7.610;2023-06-10T08:54:15;23.90;1.00
10294;DHT22;5192;50.328;7.610;2023-06-10T08:56:49;23.80;1.00
10294;DHT22;5192;50.328;7.610;2023-06-10T08:59:21;23.90;1.00
10294;DHT22;5192;50.328;7.610;2023-06-10T09:01:49;23.90;1.00
10294;DHT22;5192;50.328;7.610;2023-06-10T09:04:16;24.00;1.00
10294;DHT22;5192;50.328;7.610;2023-06-10T09:06:47;24.00;1.00
10294;DHT22;5192;50.328;7.610;2023-06-10T09:09:16;24.10;1.00
10294;DHT22;5192;50.328;7.610;2023-06-10T09:11:44;24.20;1.00
10294;DHT22;5192;50.328;7.610;2023-06-10T09:14:10;24.30;1.00
10294;DHT22;5192;50.328;7.610;2023-06-10T09:16:39;24.30;1.00
10294;DHT22;5192;50.328;7.610;2023-06-10T09:19:08;24.40;1.00
10294;DHT22;5192;50.328;7.610;2023-06-10T09:21:35;24.40;1.00
10294;DHT22;5192;50.328;7.610;2023-06-10T09:24:05;24.50;1.00
10294;DHT22;5192;50.328;7.610;2023-06-10T09:26:33;24.60;1.00
10294;DHT22;5192;50.328;7.610;2023-06-10T09:29:06;24.70;1.00
10294;DHT22;5192;50.328;7.610;2023-06-10T09:31:36;24.80;1.00
10294;DHT22;5192;50.328;7.610;2023-06-10T09:34:06;24.90;1.00
10294;DHT22;5192;50.328;7.610;2023-06-10T09:36:38;24.90;1.00
10294;DHT22;5192;50.328;7.610;2023-06-10T09:39:14;25.10;1.00
10294;DHT22;5192;50.328;7.610;2023-06-10T09:41:44;25.10;1.00
10294;DHT22;5192;50.328;7.610;2023-06-10T09:44:21;25.10;1.00
10294;DHT22;5192;50.328;7.610;2023-06-10T09:46:50;25.40;1.00
10294;DHT22;5192;50.328;7.610;2023-06-10T09:49:21;25.60;1.00
10294;DHT22;5192;50.328;7.610;2023-06-10T09:51:53;25.80;1.00
10294;DHT22;5192;50.328;7.610;2023-06-10T09:54:20;25.80;1.00
10294;DHT22;5192;50.328;7.610;2023-06-10T09:56:48;26.00;1.00
10294;DHT22;5192;50.328;7.610;2023-06-10T09:59:28;26.20;1.00
10294;DHT22;5192;50.328;7.610;2023-06-10T10:01:58;26.30;1.00
10294;DHT22;5192;50.328;7.610;2023-06-10T10:04:25;26.40;1.00
10294;DHT22;5192;50.328;7.610;2023-06-10T10:06:53;26.50;1.00
10294;DHT22;5192;50.328;7.610;2023-06-10T10:09:23;26.70;1.00
10294;DHT22;5192;50.328;7.610;2023-06-10T10:11:52;26.70;1.00
10294;DHT22;5192;50.328;7.610;2023-06-10T10:14:22;26.80;1.00
10294;DHT22;5192;50.328;7.610;2023-06-10T10:16:50;26.90;1.00
10294;DHT22;5192;50.328;7.610;2023-06-10T10:19:30;27.00;1.00
10294;DHT22;5192;50.328;7.610;2023-06-10T10:22:07;27.00;1.00
10294;DHT22;5192;50.328;7.610;2023-06-10T10:24:44;27.10;1.00
10294;DHT22;5192;50.328;7.610;2023-06-10T10:27:51;27.10;1.00
10294;DHT22;5192;50.328;7.610;2023-06-10T10:30:20;27.20;1.00
10294;DHT22;5192;50.328;7.610;2023-06-10T10:33:09;27.40;1.00
10294;DHT22;5192;50.328;7.610;2023-06-10T10:35:42;27.50;1.00
10294;DHT22;5192;50.328;7.610;2023-06-10T10:38:11;27.60;1.00
10294;DHT22;5192;50.328;7.610;2023-06-10T10:40:40;27.60;1.00
10294;DHT22;5192;50.328;7.610;2023-06-10T10:43:28;27.70;1.00
10294;DHT22;5192;50.328;7.610;2023-06-10T10:46:11;27.60;1.00
10294;DHT22;5192;50.328;7.610;2023-06-10T10:48:40;27.70;1.00
10294;DHT22;5192;50.328;7.610;2023-06-10T10:51:11;27.90;1.00
10294;DHT22;5192;50.328;7.610;2023-06-10T10:53:38;27.90;1.00
10294;DHT22;5192;50.328;7.610;2023-06-10T10:56:24;28.00;1.00
10294;DHT22;5192;50.328;7.610;2023-06-10T10:59:07;28.20;1.00
10294;DHT22;5192;50.328;7.610;2023-06-10T11:01:40;28.00;1.00
10294;DHT22;5192;50.328;7.610;2023-06-10T11:04:11;28.20;1.00
10294;DHT22;5192;50.328;7.610;2023-06-10T11:06:38;28.20;1.00
10294;DHT22;5192;50.328;7.610;2023-06-10T11:09:27;28.30;1.00
10294;DHT22;5192;50.328;7.610;2023-06-10T11:11:57;28.50;1.00
10294;DHT22;5192;50.328;7.610;2023-06-10T11:14:31;28.50;1.00
10294;DHT22;5192;50.328;7.610;2023-06-10T11:16:59;28.60;1.00
10294;DHT22;5192;50.328;7.610;2023-06-10T11:19:39;28.80;1.00
10294;DHT22;5192;50.328;7.610;2023-06-10T11:22:20;28.90;1.00
10294;DHT22;5192;50.328;7.610;2023-06-10T11:24:51;29.00;1.00
10294;DHT22;5192;50.328;7.610;2023-06-10T11:27:24;29.00;1.00
10294;DHT22;5192;50.328;7.610;2023-06-10T11:32:34;29.00;1.00
10294;DHT22;5192;50.328;7.610;2023-06-10T11:35:05;29.10;1.00
10294;DHT22;5192;50.328;7.610;2023-06-10T11:37:34;29.20;1.00
10294;DHT22;5192;50.328;7.610;2023-06-10T11:40:02;29.20;1.00
10294;DHT22;5192;50.328;7.610;2023-06-10T11:42:29;29.20;1.00
10294;DHT22;5192;50.328;7.610;2023-06-10T11:44:56;29.30;1.00
10294;DHT22;5192;50.328;7.610;2023-06-10T11:47:24;29.50;1.00
10294;DHT22;5192;50.328;7.610;2023-06-10T11:50:00;29.40;1.00
10294;DHT22;5192;50.328;7.610;2023-06-10T11:52:32;29.30;1.00
10294;DHT22;5192;50.328;7.610;2023-06-10T11:55:04;29.50;1.00
10294;DHT22;5192;50.328;7.610;2023-06-10T11:57:36;29.60;1.00
10294;DHT22;5192;50.328;7.610;2023-06-10T12:00:06;29.60;1.00
10294;DHT22;5192;50.328;7.610;2023-06-10T12:02:34;29.70;1.00
10294;DHT22;5192;50.328;7.610;2023-06-10T12:05:12;29.70;1.00
10294;DHT22;5192;50.328;7.610;2023-06-10T12:07:38;29.50;1.00
10294;DHT22;5192;50.328;7.610;2023-06-10T12:10:07;29.40;1.00
10294;DHT22;5192;50.328;7.610;2023-06-10T12:12:35;29.40;1.00
10294;DHT22;5192;50.328;7.610;2023-06-10T12:15:05;29.40;1.00
10294;DHT22;5192;50.328;7.610;2023-06-10T12:17:35;29.50;1.00
10294;DHT22;5192;50.328;7.610;2023-06-10T12:20:25;29.60;1.00
10294;DHT22;5192;50.328;7.610;2023-06-10T12:22:55;29.80;1.00
10294;DHT22;5192;50.328;7.610;2023-06-10T12:25:29;29.90;1.00
10294;DHT22;5192;50.328;7.610;2023-06-10T12:27:57;30.10;1.00
10294;DHT22;5192;50.328;7.610;2023-06-10T12:30:25;30.30;1.00
10294;DHT22;5192;50.328;7.610;2023-06-10T12:32:57;30.30;1.00
10294;DHT22;5192;50.328;7.610;2023-06-10T12:35:26;30.30;1.00
10294;DHT22;5192;50.328;7.610;2023-06-10T12:38:06;30.40;1.00
10294;DHT22;5192;50.328;7.610;2023-06-10T12:40:33;30.60;1.00
10294;DHT22;5192;50.328;7.610;2023-06-10T12:43:02;30.70;1.00
10294;DHT22;5192;50.328;7.610;2023-06-10T12:45:47;30.80;1.00
10294;DHT22;5192;50.328;7.610;2023-06-10T12:48:24;30.90;1.00
10294;DHT22;5192;50.328;7.610;2023-06-10T12:51:02;30.80;1.00
10294;DHT22;5192;50.328;7.610;2023-06-10T12:53:30;30.80;1.00
10294;DHT22;5192;50.328;7.610;2023-06-10T12:55:57;30.70;1.00
10294;DHT22;5192;50.328;7.610;2023-06-10T12:58:24;30.70;1.00
10294;DHT22;5192;50.328;7.610;2023-06-10T13:00:52;30.70;1.00
10294;DHT22;5192;50.328;7.610;2023-06-10T13:03:20;30.60;1.00
10294;DHT22;5192;50.328;7.610;2023-06-10T13:05:47;30.70;1.00
10294;DHT22;5192;50.328;7.610;2023-06-10T13:08:14;30.70;1.00
10294;DHT22;5192;50.328;7.610;2023-06-10T13:10:44;30.60;1.00
10294;DHT22;5192;50.328;7.610;2023-06-10T13:13:12;30.40;1.00
10294;DHT22;5192;50.328;7.610;2023-06-10T13:15:41;30.20;1.00
10294;DHT22;5192;50.328;7.610;2023-06-10T13:18:08;30.10;1.00
10294;DHT22;5192;50.328;7.610;2023-06-10T13:20:35;30.20;1.00
10294;DHT22;5192;50.328;7.610;2023-06-10T13:23:02;30.50;1.00
10294;DHT22;5192;50.328;7.610;2023-06-10T13:25:28;30.70;1.00
10294;DHT22;5192;50.328;7.610;2023-06-10T13:27:56;30.90;1.00
10294;DHT22;5192;50.328;7.610;2023-06-10T13:30:24;31.00;1.00
10294;DHT22;5192;50.328;7.610;2023-06-10T13:32:51;31.10;1.00
10294;DHT22;5192;50.328;7.610;2023-06-10T13:35:18;31.30;1.00
10294;DHT22;5192;50.328;7.610;2023-06-10T13:37:45;31.30;1.00
10294;DHT22;5192;50.328;7.610;2023-06-10T13:40:13;31.60;1.00
10294;DHT22;5192;50.328;7.610;2023-06-10T13:42:42;31.90;1.00
10294;DHT22;5192;50.328;7.610;2023-06-10T13:45:09;32.10;1.00
10294;DHT22;5192;50.328;7.610;2023-06-10T13:47:37;32.10;1.00
10294;DHT22;5192;50.328;7.610;2023-06-10T13:50:05;31.90;1.00
10294;DHT22;5192;50.328;7.610;2023-06-10T13:52:33;32.10;1.00
10294;DHT22;5192;50.328;7.610;2023-06-10T13:55:00;32.00;1.00
10294;DHT22;5192;50.328;7.610;2023-06-10T13:57:27;32.20;1.00
10294;DHT22;5192;50.328;7.610;2023-06-10T13:59:54;32.20;1.00
10294;DHT22;5192;50.328;7.610;2023-06-10T14:02:24;32.00;1.00
10294;DHT22;5192;50.328;7.610;2023-06-10T14:04:53;31.50;1.00
10294;DHT22;5192;50.328;7.610;2023-06-10T14:07:21;31.20;1.00
10294;DHT22;5192;50.328;7.610;2023-06-10T14:09:48;31.30;1.00
10294;DHT22;5192;50.328;7.610;2023-06-10T14:12:16;31.50;1.00
10294;DHT22;5192;50.328;7.610;2023-06-10T14:14:44;31.60;1.00
10294;DHT22;5192;50.328;7.610;2023-06-10T14:17:11;31.60;1.00
10294;DHT22;5192;50.328;7.610;2023-06-10T14:19:38;31.60;1.00
10294;DHT22;5192;50.328;7.610;2023-06-10T14:22:06;32.00;1.00
10294;DHT22;5192;50.328;7.610;2023-06-10T14:24:33;32.50;1.00
10294;DHT22;5192;50.328;7.610;2023-06-10T14:27:00;33.00;1.00
10294;DHT22;5192;50.328;7.610;2023-06-10T14:29:27;33.80;1.00
10294;DHT22;5192;50.328;7.610;2023-06-10T14:31:57;34.50;1.00
10294;DHT22;5192;50.328;7.610;2023-06-10T14:34:25;35.40;1.00
10294;DHT22;5192;50.328;7.610;2023-06-10T14:36:55;35.50;1.00
10294;DHT22;5192;50.328;7.610;2023-06-10T14:39:22;36.40;1.00
10294;DHT22;5192;50.328;7.610;2023-06-10T14:41:50;36.90;1.00
10294;DHT22;5192;50.328;7.610;2023-06-10T14:44:19;37.50;1.00
10294;DHT22;5192;50.328;7.610;2023-06-10T14:46:48;38.00;1.00
10294;DHT22;5192;50.328;7.610;2023-06-10T14:49:16;38.80;1.00
10294;DHT22;5192;50.328;7.610;2023-06-10T14:51:43;38.80;1.00
10294;DHT22;5192;50.328;7.610;2023-06-10T14:54:11;38.70;1.00
10294;DHT22;5192;50.328;7.610;2023-06-10T14:56:38;39.00;1.00
10294;DHT22;5192;50.328;7.610;2023-06-10T14:59:05;38.60;1.00
10294;DHT22;5192;50.328;7.610;2023-06-10T15:01:31;38.60;1.00
10294;DHT22;5192;50.328;7.610;2023-06-10T15:03:58;39.40;1.00
10294;DHT22;5192;50.328;7.610;2023-06-10T15:06:26;40.00;1.00
10294;DHT22;5192;50.328;7.610;2023-06-10T15:08:53;40.00;1.00
10294;DHT22;5192;50.328;7.610;2023-06-10T15:11:20;40.60;1.00
10294;DHT22;5192;50.328;7.610;2023-06-10T15:13:49;40.30;1.00
10294;DHT22;5192;50.328;7.610;2023-06-10T15:16:17;39.70;1.00
10294;DHT22;5192;50.328;7.610;2023-06-10T15:18:44;39.60;1.00
10294;DHT22;5192;50.328;7.610;2023-06-10T15:21:12;40.60;1.00
10294;DHT22;5192;50.328;7.610;2023-06-10T15:23:39;40.10;1.00
10294;DHT22;5192;50.328;7.610;2023-06-10T15:26:06;39.20;1.00
10294;DHT22;5192;50.328;7.610;2023-06-10T15:28:32;39.40;1.00
10294;DHT22;5192;50.328;7.610;2023-06-10T15:31:01;39.00;1.00
10294;DHT22;5192;50.328;7.610;2023-06-10T15:33:26;39.30;1.00
10294;DHT22;5192;50.328;7.610;2023-06-10T15:35:53;39.20;1.00
10294;DHT22;5192;50.328;7.610;2023-06-10T15:38:19;39.60;1.00
10294;DHT22;5192;50.328;7.610;2023-06-10T15:40:48;38.50;1.00
10294;DHT22;5192;50.328;7.610;2023-06-10T15:43:14;39.00;1.00
10294;DHT22;5192;50.328;7.610;2023-06-10T15:45:41;39.50;1.00
10294;DHT22;5192;50.328;7.610;2023-06-10T15:48:09;40.20;1.00
10294;DHT22;5192;50.328;7.610;2023-06-10T15:50:36;40.10;1.00
10294;DHT22;5192;50.328;7.610;2023-06-10T15:53:03;40.30;1.00
10294;DHT22;5192;50.328;7.610;2023-06-10T15:55:29;40.60;1.00
10294;DHT22;5192;50.328;7.610;2023-06-10T15:57:56;40.70;1.00
10294;DHT22;5192;50.328;7.610;2023-06-10T16:00:27;41.10;1.00
10294;DHT22;5192;50.328;7.610;2023-06-10T16:02:55;41.10;1.00
10294;DHT22;5192;50.328;7.610;2023-06-10T16:05:22;41.60;1.00
10294;DHT22;5192;50.328;7.610;2023-06-10T16:07:49;41.30;1.00
10294;DHT22;5192;50.328;7.610;2023-06-10T16:10:15;40.90;1.00
10294;DHT22;5192;50.328;7.610;2023-06-10T16:12:43;40.40;1.00
10294;DHT22;5192;50.328;7.610;2023-06-10T16:15:10;40.20;1.00
10294;DHT22;5192;50.328;7.610;2023-06-10T16:17:39;40.30;1.00